Time;durP1;ratioP1;P1;durP2;ratioP2;P2;SDS_P1;SDS_P2;PMS_P1;PMS_P2;Temp;Humidity;BMP_temperature;BMP_pressure;BME280_temperature;BME280_humidity;BME280_pressure;Samples;Min_cycle;Max_cycle;Signal;HPM_P1;HPM_P2
2021/06/20 00:01:06;;;;;;;16.40;10.70;;;;;;;;;;4991636;28;20455;-49
2021/06/20 00:03:32;;;;;;;16.53;12.73;;;;;;;;;;4991596;28;20406;-49
2021/06/20 00:06:00;;;;;;;25.47;11.33;;;;;;;;;;4991693;28;20654;-49
2021/06/20 00:08:26;;;;;;;17.87;11.93;;;;;;;;;;4991645;28;20736;-48
2021/06/20 00:10:53;;;;;;;22.23;12.00;;;;;;;;;;4991699;28;20888;-48
2021/06/20 00:13:20;;;;;;;18.33;12.93;;;;;;;;;;4991445;28;20919;-47
2021/06/20 00:15:47;;;;;;;25.27;11.87;;;;;;;;;;4991454;28;20447;-48
2021/06/20 00:18:13;;;;;;;17.70;12.97;;;;;;;;;;4991347;28;20787;-48
2021/06/20 00:20:41;;;;;;;14.87;10.63;;;;;;;;;;4991682;28;20923;-48
2021/06/20 00:23:07;;;;;;;14.10;11.20;;;;;;;;;;4991866;28;20420;-48
2021/06/20 00:25:33;;;;;;;18.93;11.80;;;;;;;;;;4991891;28;20463;-48
2021/06/20 00:27:59;;;;;;;15.17;11.87;;;;;;;;;;4991465;28;20448;-48
2021/06/20 00:30:26;;;;;;;16.40;12.40;;;;;;;;;;4991633;28;20435;-47
2021/06/20 00:32:52;;;;;;;13.50;12.00;;;;;;;;;;4991178;28;20823;-48
2021/06/20 00:35:19;;;;;;;17.60;9.97;;;;;;;;;;4991427;28;20820;-48
2021/06/20 00:37:45;;;;;;;13.67;10.30;;;;;;;;;;4990908;28;20411;-48
2021/06/20 00:40:12;;;;;;;18.50;11.40;;;;;;;;;;4991383;28;20399;-48
2021/06/20 00:42:38;;;;;;;13.23;10.47;;;;;;;;;;4991236;28;20946;-48
2021/06/20 00:45:04;;;;;;;17.00;11.37;;;;;;;;;;4991606;28;20741;-48
2021/06/20 00:47:31;;;;;;;11.40;10.20;;;;;;;;;;4991067;28;20404;-48
2021/06/20 00:49:57;;;;;;;14.50;10.47;;;;;;;;;;4991309;28;20785;-48
2021/06/20 00:52:23;;;;;;;11.43;9.30;;;;;;;;;;4991160;28;20526;-48
2021/06/20 00:54:48;;;;;;;9.77;8.67;;;;;;;;;;4991225;28;20976;-47
2021/06/20 00:57:19;;;;;;;10.27;9.33;;;;;;;;;;4973835;28;20517;-48
2021/06/20 00:59:45;;;;;;;11.40;10.20;;;;;;;;;;4991116;28;20408;-47
2021/06/20 01:02:12;;;;;;;13.67;10.90;;;;;;;;;;4990571;28;20426;-47
2021/06/20 01:04:39;;;;;;;18.43;9.30;;;;;;;;;;4990950;28;20404;-47
2021/06/20 01:07:05;;;;;;;11.60;10.00;;;;;;;;;;4990974;28;20419;-48
2021/06/20 01:09:31;;;;;;;10.50;8.63;;;;;;;;;;4990967;28;20404;-48
2021/06/20 01:11:57;;;;;;;10.50;9.40;;;;;;;;;;4991324;28;20428;-47
2021/06/20 01:14:23;;;;;;;20.67;8.93;;;;;;;;;;4990856;28;20788;-47
2021/06/20 01:16:52;;;;;;;11.27;8.43;;;;;;;;;;4990621;28;20893;-47
2021/06/20 01:19:19;;;;;;;13.23;8.83;;;;;;;;;;4991261;28;20978;-47
2021/06/20 01:21:45;;;;;;;8.10;7.30;;;;;;;;;;4991306;28;20518;-47
2021/06/20 01:24:11;;;;;;;11.20;7.97;;;;;;;;;;4991324;28;20494;-47
2021/06/20 01:26:38;;;;;;;13.83;8.20;;;;;;;;;;4990749;28;20781;-48
2021/06/20 01:29:06;;;;;;;12.90;7.73;;;;;;;;;;4991105;28;20508;-47
2021/06/20 01:31:34;;;;;;;10.30;6.50;;;;;;;;;;4991166;28;20424;-47
2021/06/20 01:34:00;;;;;;;6.03;5.43;;;;;;;;;;4991620;28;20491;-47
2021/06/20 01:36:26;;;;;;;7.57;5.77;;;;;;;;;;4991080;28;20459;-47
2021/06/20 01:38:51;;;;;;;10.43;5.07;;;;;;;;;;4990975;28;20475;-47
2021/06/20 01:41:17;;;;;;;6.40;4.80;;;;;;;;;;4991027;28;20488;-47
2021/06/20 01:43:43;;;;;;;20.30;5.90;;;;;;;;;;4991106;28;20920;-47
2021/06/20 01:46:09;;;;;;;9.70;6.07;;;;;;;;;;4990981;28;20412;-47
2021/06/20 01:48:36;;;;;;;7.13;4.90;;;;;;;;;;4992691;28;20506;-47
2021/06/20 01:51:05;;;;;;;10.23;6.13;;;;;;;;;;4994630;28;20838;-48
2021/06/20 01:53:31;;;;;;;6.83;5.87;;;;;;;;;;4994209;28;20429;-47
2021/06/20 01:55:57;;;;;;;9.03;5.03;;;;;;;;;;4994095;28;20452;-48
2021/06/20 01:58:23;;;;;;;6.03;4.43;;;;;;;;;;4976902;28;20405;-48
2021/06/20 02:00:50;;;;;;;7.97;4.63;;;;;;;;;;4994554;28;20462;-47
2021/06/20 02:03:17;;;;;;;4.37;3.97;;;;;;;;;;4994000;28;20849;-48
2021/06/20 02:05:44;;;;;;;4.27;3.87;;;;;;;;;;4994254;28;20414;-47
2021/06/20 02:08:11;;;;;;;8.60;4.00;;;;;;;;;;4993923;28;20460;-47
2021/06/20 02:10:38;;;;;;;10.50;3.90;;;;;;;;;;4993556;28;20440;-48
2021/06/20 02:13:04;;;;;;;7.07;4.30;;;;;;;;;;4993925;28;20424;-47
2021/06/20 02:15:30;;;;;;;4.73;3.87;;;;;;;;;;4994313;28;20510;-47
2021/06/20 02:17:57;;;;;;;4.90;3.20;;;;;;;;;;4993750;28;20400;-47
2021/06/20 02:20:23;;;;;;;8.50;4.30;;;;;;;;;;4993728;28;20396;-47
2021/06/20 02:22:53;;;;;;;4.43;3.00;;;;;;;;;;4993387;28;20995;-47
2021/06/20 02:25:19;;;;;;;4.63;3.20;;;;;;;;;;4993549;28;20412;-48
2021/06/20 02:27:47;;;;;;;4.90;3.10;;;;;;;;;;4993630;28;20435;-48
2021/06/20 02:30:14;;;;;;;5.80;3.10;;;;;;;;;;4993767;28;20436;-48
2021/06/20 02:32:40;;;;;;;2.80;2.50;;;;;;;;;;4993467;28;20424;-48
2021/06/20 02:35:08;;;;;;;4.23;2.87;;;;;;;;;;4993773;28;20416;-48
2021/06/20 02:37:34;;;;;;;4.33;2.83;;;;;;;;;;4993206;28;20819;-47
2021/06/20 02:40:00;;;;;;;8.00;2.77;;;;;;;;;;4993469;28;20404;-47
2021/06/20 02:42:26;;;;;;;4.73;2.90;;;;;;;;;;4993329;28;20431;-48
2021/06/20 02:44:53;;;;;;;5.50;2.77;;;;;;;;;;4993097;28;20479;-48
2021/06/20 02:47:19;;;;;;;10.30;3.23;;;;;;;;;;4993319;28;20407;-48
2021/06/20 02:49:45;;;;;;;6.70;4.43;;;;;;;;;;4992897;28;20404;-48
2021/06/20 02:52:13;;;;;;;9.80;3.40;;;;;;;;;;4992941;28;20448;-48
2021/06/20 02:54:49;;;;;;;9.63;3.80;;;;;;;;;;4992605;28;20820;-48
2021/06/20 02:57:16;;;;;;;6.83;4.20;;;;;;;;;;4992434;28;20989;-48
2021/06/20 02:59:42;;;;;;;6.07;3.80;;;;;;;;;;4992413;28;20777;-48
2021/06/20 03:02:08;;;;;;;8.70;3.30;;;;;;;;;;4992585;28;20420;-48
2021/06/20 03:04:34;;;;;;;5.13;3.60;;;;;;;;;;4992306;28;20507;-48
2021/06/20 03:07:00;;;;;;;4.53;3.13;;;;;;;;;;4992186;28;20404;-48
2021/06/20 03:09:26;;;;;;;5.93;4.07;;;;;;;;;;4992310;28;20415;-48
2021/06/20 03:11:51;;;;;;;6.67;3.40;;;;;;;;;;4992152;28;20432;-48
2021/06/20 03:14:17;;;;;;;7.10;3.73;;;;;;;;;;4992595;28;20467;-48
2021/06/20 03:16:44;;;;;;;9.70;4.00;;;;;;;;;;4992251;28;20538;-48
2021/06/20 03:19:11;;;;;;;9.20;4.00;;;;;;;;;;4992639;28;20483;-47
2021/06/20 03:21:37;;;;;;;9.40;4.97;;;;;;;;;;4992495;28;20432;-47
2021/06/20 03:24:03;;;;;;;5.90;4.40;;;;;;;;;;4992828;28;20440;-47
2021/06/20 03:26:29;;;;;;;6.37;4.33;;;;;;;;;;4992856;28;20436;-47
2021/06/20 03:28:56;;;;;;;7.90;4.50;;;;;;;;;;4993251;28;20421;-48
2021/06/20 03:31:22;;;;;;;12.73;5.73;;;;;;;;;;4993151;28;20452;-47
2021/06/20 03:33:48;;;;;;;8.33;5.30;;;;;;;;;;4992686;28;20412;-48
2021/06/20 03:36:14;;;;;;;8.80;4.97;;;;;;;;;;4992364;28;20459;-47
2021/06/20 03:38:40;;;;;;;10.90;5.27;;;;;;;;;;4992284;28;20411;-48
2021/06/20 03:41:07;;;;;;;11.60;6.23;;;;;;;;;;4992280;28;20462;-48
2021/06/20 03:43:33;;;;;;;14.23;5.30;;;;;;;;;;4992170;28;20492;-48
2021/06/20 03:45:59;;;;;;;13.70;5.80;;;;;;;;;;4991977;28;20435;-48
2021/06/20 03:48:25;;;;;;;11.27;5.87;;;;;;;;;;4991650;28;20414;-48
2021/06/20 03:50:51;;;;;;;9.10;5.23;;;;;;;;;;4991628;28;20437;-48
2021/06/20 03:53:17;;;;;;;10.00;5.97;;;;;;;;;;4991517;28;20977;-48
2021/06/20 03:55:43;;;;;;;8.87;5.70;;;;;;;;;;4991275;28;20431;-48
2021/06/20 03:58:09;;;;;;;12.70;6.23;;;;;;;;;;4991700;28;20411;-48
2021/06/20 04:00:35;;;;;;;10.90;5.10;;;;;;;;;;4992214;28;20405;-47
2021/06/20 04:03:03;;;;;;;8.23;5.90;;;;;;;;;;4991738;28;20934;-48
2021/06/20 04:05:28;;;;;;;5.70;5.10;;;;;;;;;;4992092;28;20519;-48
2021/06/20 04:07:54;;;;;;;8.83;5.30;;;;;;;;;;4991966;28;20561;-48
2021/06/20 04:10:20;;;;;;;9.13;5.40;;;;;;;;;;4991433;28;20949;-48
2021/06/20 04:12:46;;;;;;;9.00;5.13;;;;;;;;;;4991495;28;20459;-48
2021/06/20 04:15:13;;;;;;;7.60;5.00;;;;;;;;;;4991742;28;20412;-48
2021/06/20 04:17:38;;;;;;;5.40;5.00;;;;;;;;;;4991028;28;20415;-48
2021/06/20 04:20:07;;;;;;;7.20;5.20;;;;;;;;;;4991705;28;20408;-48
2021/06/20 04:22:33;;;;;;;7.23;5.27;;;;;;;;;;4991031;28;20807;-48
2021/06/20 04:24:59;;;;;;;10.93;4.93;;;;;;;;;;4991301;28;20400;-48
2021/06/20 04:27:25;;;;;;;8.00;4.93;;;;;;;;;;4990918;28;20884;-49
2021/06/20 04:29:51;;;;;;;6.27;4.80;;;;;;;;;;4991195;28;20407;-48
2021/06/20 04:32:17;;;;;;;8.80;7.20;;;;;;;;;;4991451;28;20431;-48
2021/06/20 04:34:43;;;;;;;10.63;5.70;;;;;;;;;;4991349;28;20400;-49
2021/06/20 04:37:09;;;;;;;5.53;4.83;;;;;;;;;;4991030;28;20459;-49
2021/06/20 04:39:35;;;;;;;6.57;4.80;;;;;;;;;;4991434;28;20947;-49
2021/06/20 04:42:01;;;;;;;27.23;5.93;;;;;;;;;;4991531;28;20443;-49
2021/06/20 04:44:43;;;;;;;7.13;4.30;;;;;;;;;;4992469;28;20779;-49
2021/06/20 04:47:09;;;;;;;5.67;4.30;;;;;;;;;;4992200;28;20412;-49
2021/06/20 04:49:35;;;;;;;6.07;4.23;;;;;;;;;;4992255;28;20447;-49
2021/06/20 04:52:04;;;;;;;5.63;4.57;;;;;;;;;;4991633;28;20431;-49
2021/06/20 04:54:30;;;;;;;5.73;4.53;;;;;;;;;;4991643;28;20416;-49
2021/06/20 04:56:56;;;;;;;5.90;4.70;;;;;;;;;;4973718;28;20521;-49
2021/06/20 04:59:22;;;;;;;5.70;4.60;;;;;;;;;;4991353;28;20398;-49
2021/06/20 05:01:49;;;;;;;4.03;3.50;;;;;;;;;;4990827;28;20791;-49
2021/06/20 05:04:15;;;;;;;4.63;4.33;;;;;;;;;;4991268;28;20496;-49
2021/06/20 05:06:41;;;;;;;13.93;5.70;;;;;;;;;;4990881;28;21087;-49
2021/06/20 05:09:07;;;;;;;4.40;3.60;;;;;;;;;;4990750;28;20436;-49
2021/06/20 05:11:33;;;;;;;9.53;4.20;;;;;;;;;;4991232;28;20403;-49
2021/06/20 05:13:59;;;;;;;6.60;4.43;;;;;;;;;;4992787;28;20508;-50
2021/06/20 05:16:25;;;;;;;4.63;4.23;;;;;;;;;;4992419;28;20460;-50
2021/06/20 05:18:51;;;;;;;4.10;3.60;;;;;;;;;;4992040;28;20412;-51
2021/06/20 05:21:17;;;;;;;14.00;3.60;;;;;;;;;;4991250;28;20955;-50
2021/06/20 05:23:43;;;;;;;4.67;3.23;;;;;;;;;;4993541;28;20855;-51
2021/06/20 05:26:09;;;;;;;3.73;3.40;;;;;;;;;;4996151;28;20451;-50
2021/06/20 05:28:35;;;;;;;6.20;4.03;;;;;;;;;;4994667;28;20903;-50
2021/06/20 05:31:00;;;;;;;6.00;3.70;;;;;;;;;;4995163;28;20508;-50
2021/06/20 05:33:26;;;;;;;5.17;4.00;;;;;;;;;;4995068;28;20434;-50
2021/06/20 05:35:52;;;;;;;13.20;4.27;;;;;;;;;;4995536;28;20809;-50
2021/06/20 05:38:18;;;;;;;3.60;3.30;;;;;;;;;;4995478;28;20443;-50
2021/06/20 05:40:44;;;;;;;3.47;3.17;;;;;;;;;;4996050;28;20392;-50
2021/06/20 05:43:10;;;;;;;7.30;3.70;;;;;;;;;;4995539;28;20474;-50
2021/06/20 05:45:36;;;;;;;3.80;3.50;;;;;;;;;;4995784;28;20768;-50
2021/06/20 05:48:02;;;;;;;11.20;3.03;;;;;;;;;;4994752;28;20408;-50
2021/06/20 05:50:29;;;;;;;6.37;4.33;;;;;;;;;;4994617;28;20534;-50
2021/06/20 05:52:55;;;;;;;13.33;4.87;;;;;;;;;;4994987;28;20884;-50
2021/06/20 05:55:21;;;;;;;4.10;3.60;;;;;;;;;;4994963;28;20408;-50
2021/06/20 05:57:47;;;;;;;8.30;3.67;;;;;;;;;;4993277;28;20892;-50
2021/06/20 06:00:14;;;;;;;5.50;3.97;;;;;;;;;;4993504;28;20419;-50
2021/06/20 06:02:40;;;;;;;5.47;4.07;;;;;;;;;;4993309;28;20435;-50
2021/06/20 06:05:07;;;;;;;4.50;3.47;;;;;;;;;;4993680;28;20404;-50
2021/06/20 06:07:34;;;;;;;4.20;3.90;;;;;;;;;;4993225;28;20396;-50
2021/06/20 06:10:00;;;;;;;5.90;4.83;;;;;;;;;;4993367;28;20410;-51
2021/06/20 06:12:26;;;;;;;6.90;4.67;;;;;;;;;;4993340;28;20489;-51
2021/06/20 06:14:53;;;;;;;4.30;4.00;;;;;;;;;;4993264;28;20402;-50
2021/06/20 06:17:21;;;;;;;4.60;4.20;;;;;;;;;;4993196;28;20502;-50
2021/06/20 06:19:48;;;;;;;6.40;4.70;;;;;;;;;;4993207;28;20809;-50
2021/06/20 06:22:15;;;;;;;7.00;4.77;;;;;;;;;;4993401;28;20839;-50
2021/06/20 06:24:41;;;;;;;5.70;5.20;;;;;;;;;;4993432;28;20415;-50
2021/06/20 06:27:07;;;;;;;4.90;4.50;;;;;;;;;;4993576;28;20412;-51
2021/06/20 06:29:33;;;;;;;4.70;4.30;;;;;;;;;;4993225;28;20892;-51
2021/06/20 06:31:59;;;;;;;5.20;4.33;;;;;;;;;;4993034;28;20438;-51
2021/06/20 06:34:25;;;;;;;4.70;4.30;;;;;;;;;;4992680;28;20412;-51
2021/06/20 06:36:52;;;;;;;4.60;4.20;;;;;;;;;;4992526;28;20455;-51
2021/06/20 06:39:19;;;;;;;5.00;4.50;;;;;;;;;;4993000;28;20404;-51
2021/06/20 06:41:45;;;;;;;4.67;4.07;;;;;;;;;;4992817;28;20795;-51
2021/06/20 06:44:11;;;;;;;4.80;4.30;;;;;;;;;;4992889;28;20412;-51
2021/06/20 06:46:37;;;;;;;4.30;4.00;;;;;;;;;;4992679;28;20458;-51
2021/06/20 06:49:03;;;;;;;5.67;4.03;;;;;;;;;;4993003;28;20918;-51
2021/06/20 06:51:29;;;;;;;11.00;4.07;;;;;;;;;;4992528;28;20797;-51
2021/06/20 06:53:55;;;;;;;3.97;3.57;;;;;;;;;;4992515;28;20424;-51
2021/06/20 06:56:21;;;;;;;5.27;4.03;;;;;;;;;;4992378;28;20804;-52
2021/06/20 06:58:47;;;;;;;4.70;4.07;;;;;;;;;;4992506;28;20404;-51
2021/06/20 07:01:13;;;;;;;3.60;3.30;;;;;;;;;;4992425;28;20812;-52
2021/06/20 07:03:39;;;;;;;4.20;3.67;;;;;;;;;;4992084;28;20487;-51
2021/06/20 07:06:05;;;;;;;4.27;3.50;;;;;;;;;;4992506;28;20773;-51
2021/06/20 07:08:31;;;;;;;5.03;4.50;;;;;;;;;;4992164;28;20400;-51
2021/06/20 07:10:57;;;;;;;4.53;4.23;;;;;;;;;;4992600;28;20404;-51
2021/06/20 07:13:23;;;;;;;4.03;3.70;;;;;;;;;;4992160;28;20427;-51
2021/06/20 07:15:49;;;;;;;4.63;3.33;;;;;;;;;;4991908;28;20463;-51
2021/06/20 07:18:15;;;;;;;3.80;3.50;;;;;;;;;;4991908;28;20765;-51
2021/06/20 07:20:41;;;;;;;3.90;3.47;;;;;;;;;;4992183;28;20404;-51
2021/06/20 07:23:07;;;;;;;5.63;3.23;;;;;;;;;;4974229;28;20431;-51
2021/06/20 07:25:33;;;;;;;9.93;3.30;;;;;;;;;;4991940;28;20408;-52
2021/06/20 07:27:59;;;;;;;10.17;3.70;;;;;;;;;;4991978;28;20418;-51
2021/06/20 07:30:27;;;;;;;3.80;3.60;;;;;;;;;;4992020;28;20412;-52
2021/06/20 07:32:54;;;;;;;8.97;3.37;;;;;;;;;;4991884;28;20836;-51
2021/06/20 07:35:20;;;;;;;3.50;3.23;;;;;;;;;;4991794;28;20404;-51
2021/06/20 07:37:46;;;;;;;3.87;3.43;;;;;;;;;;4991642;28;20396;-51
2021/06/20 07:40:14;;;;;;;4.17;3.10;;;;;;;;;;4991788;28;20407;-51
2021/06/20 07:42:41;;;;;;;3.67;3.00;;;;;;;;;;4991444;28;20470;-52
2021/06/20 07:45:07;;;;;;;3.00;2.77;;;;;;;;;;4991439;28;20443;-52
2021/06/20 07:47:34;;;;;;;6.30;3.17;;;;;;;;;;4990942;28;20412;-51
2021/06/20 07:50:00;;;;;;;3.33;3.03;;;;;;;;;;4991517;28;20455;-51
2021/06/20 07:52:26;;;;;;;3.07;2.90;;;;;;;;;;4991261;28;20480;-51
2021/06/20 07:54:52;;;;;;;5.43;3.10;;;;;;;;;;4991482;28;20920;-51
2021/06/20 07:57:19;;;;;;;7.33;3.30;;;;;;;;;;4991446;28;20466;-53
2021/06/20 07:59:46;;;;;;;6.90;2.90;;;;;;;;;;4991106;28;20442;-50
2021/06/20 08:02:12;;;;;;;6.07;3.40;;;;;;;;;;4991414;28;20416;-51
2021/06/20 08:04:39;;;;;;;3.20;2.90;;;;;;;;;;4991074;28;20498;-51
2021/06/20 08:07:05;;;;;;;9.37;3.60;;;;;;;;;;4991090;28;20419;-51
2021/06/20 08:09:31;;;;;;;5.63;2.97;;;;;;;;;;4990997;28;20408;-51
2021/06/20 08:11:57;;;;;;;3.40;3.10;;;;;;;;;;4991212;28;20427;-51
2021/06/20 08:14:23;;;;;;;4.07;2.90;;;;;;;;;;4991175;28;20454;-51
2021/06/20 08:16:49;;;;;;;5.03;3.10;;;;;;;;;;4990796;28;20566;-51
2021/06/20 08:19:15;;;;;;;2.90;2.70;;;;;;;;;;4991029;28;20404;-52
2021/06/20 08:21:43;;;;;;;2.80;2.60;;;;;;;;;;4990923;28;20834;-52
2021/06/20 08:24:10;;;;;;;2.43;2.30;;;;;;;;;;4991065;28;20491;-53
2021/06/20 08:26:36;;;;;;;2.40;2.20;;;;;;;;;;4990875;28;20412;-51
2021/06/20 08:29:02;;;;;;;3.10;2.20;;;;;;;;;;4991111;28;20414;-52
2021/06/20 08:31:28;;;;;;;3.60;2.37;;;;;;;;;;4991354;28;20428;-52
2021/06/20 08:33:54;;;;;;;2.60;1.90;;;;;;;;;;4991094;28;20412;-53
2021/06/20 08:36:20;;;;;;;1.80;1.70;;;;;;;;;;4990852;28;20466;-51
2021/06/20 08:38:46;;;;;;;4.97;2.80;;;;;;;;;;4990973;28;20494;-52
2021/06/20 08:41:14;;;;;;;2.27;2.13;;;;;;;;;;4991087;28;20478;-52
2021/06/20 08:43:40;;;;;;;3.53;2.00;;;;;;;;;;4990947;28;20896;-52
2021/06/20 08:46:06;;;;;;;3.33;1.87;;;;;;;;;;4990673;28;20404;-53
2021/06/20 08:48:35;;;;;;;2.00;1.60;;;;;;;;;;4990647;28;20404;-52
2021/06/20 08:51:01;;;;;;;3.57;1.50;;;;;;;;;;4990747;28;20454;-52
2021/06/20 08:53:27;;;;;;;2.50;2.00;;;;;;;;;;4990738;28;20439;-52
2021/06/20 08:55:53;;;;;;;2.20;2.00;;;;;;;;;;4989448;28;20811;-52
2021/06/20 08:58:25;;;;;;;6.17;1.57;;;;;;;;;;4993150;28;20408;-52
2021/06/20 09:00:51;;;;;;;5.87;1.83;;;;;;;;;;4994436;28;20407;-52
2021/06/20 09:03:17;;;;;;;2.33;2.13;;;;;;;;;;4994388;28;20411;-52
2021/06/20 09:06:03;;;;;;;4.07;1.80;;;;;;;;;;4994307;28;20952;-52
2021/06/20 09:08:30;;;;;;;2.20;2.07;;;;;;;;;;4994455;28;20404;-52
2021/06/20 09:10:56;;;;;;;2.27;1.60;;;;;;;;;;4994436;28;20767;-52
2021/06/20 09:13:23;;;;;;;4.63;1.90;;;;;;;;;;4994312;28;20796;-52
2021/06/20 09:16:02;;;;;;;2.40;2.20;;;;;;;;;;4994201;28;20754;-52
2021/06/20 09:18:28;;;;;;;1.93;1.70;;;;;;;;;;4994376;28;20946;-52
2021/06/20 09:20:54;;;;;;;2.77;1.70;;;;;;;;;;4994100;28;20400;-53
2021/06/20 09:23:20;;;;;;;2.50;1.80;;;;;;;;;;4994195;28;20511;-52
2021/06/20 09:25:57;;;;;;;3.37;1.60;;;;;;;;;;4993964;28;20419;-52
2021/06/20 09:28:30;;;;;;;2.10;1.83;;;;;;;;;;4994352;28;20884;-54
2021/06/20 09:30:57;;;;;;;2.90;2.10;;;;;;;;;;4994244;28;20798;-53
2021/06/20 09:33:23;;;;;;;4.93;1.73;;;;;;;;;;4994092;28;20435;-53
2021/06/20 09:35:55;;;;;;;1.50;1.40;;;;;;;;;;4993828;28;20466;-52
2021/06/20 09:38:32;;;;;;;3.53;1.83;;;;;;;;;;4993967;28;20454;-52
2021/06/20 09:41:05;;;;;;;2.90;1.70;;;;;;;;;;4993991;28;20406;-53
2021/06/20 09:43:31;;;;;;;4.10;1.90;;;;;;;;;;4993553;28;20408;-53
2021/06/20 09:45:57;;;;;;;1.80;1.70;;;;;;;;;;4993729;28;20404;-53
2021/06/20 09:48:27;;;;;;;3.00;1.80;;;;;;;;;;4993741;28;20797;-53
2021/06/20 09:50:54;;;;;;;5.60;2.07;;;;;;;;;;4993727;28;20451;-52
2021/06/20 09:53:31;;;;;;;3.10;1.70;;;;;;;;;;4993372;28;20542;-52
2021/06/20 09:56:10;;;;;;;1.97;1.83;;;;;;;;;;4993563;28;20494;-51
2021/06/20 09:58:37;;;;;;;3.13;1.90;;;;;;;;;;4993386;28;20889;-52
2021/06/20 10:01:09;;;;;;;1.80;1.70;;;;;;;;;;4993628;28;20408;-51
2021/06/20 10:03:36;;;;;;;2.43;2.13;;;;;;;;;;4993078;28;20470;-52
2021/06/20 10:06:02;;;;;;;2.83;2.43;;;;;;;;;;4993407;28;20868;-52
2021/06/20 10:08:28;;;;;;;1.87;1.77;;;;;;;;;;4993002;28;20951;-52
2021/06/20 10:10:54;;;;;;;1.90;1.80;;;;;;;;;;4993251;28;20412;-52
2021/06/20 10:13:19;;;;;;;1.57;1.47;;;;;;;;;;4993122;28;20419;-52
2021/06/20 10:15:45;;;;;;;2.10;1.60;;;;;;;;;;4993233;28;20455;-53
2021/06/20 10:18:12;;;;;;;3.47;1.60;;;;;;;;;;4993090;28;20999;-52
2021/06/20 10:20:38;;;;;;;3.00;1.83;;;;;;;;;;4993052;28;20473;-52
2021/06/20 10:23:05;;;;;;;1.73;1.63;;;;;;;;;;4993187;28;20507;-52
2021/06/20 10:25:31;;;;;;;5.63;1.80;;;;;;;;;;4993019;28;20400;-52
2021/06/20 10:28:12;;;;;;;2.13;1.70;;;;;;;;;;4993206;28;20915;-51
2021/06/20 10:30:38;;;;;;;2.10;1.50;;;;;;;;;;4992891;28;20413;-52
2021/06/20 10:33:12;;;;;;;2.70;1.60;;;;;;;;;;4993085;28;21196;-52
2021/06/20 10:35:38;;;;;;;1.73;1.37;;;;;;;;;;4992646;28;20960;-52
2021/06/20 10:38:05;;;;;;;4.77;1.83;;;;;;;;;;4992935;28;20408;-52
2021/06/20 10:40:31;;;;;;;1.73;1.30;;;;;;;;;;4992656;28;20943;-53
2021/06/20 10:42:59;;;;;;;1.30;1.20;;;;;;;;;;4992839;28;20472;-53
2021/06/20 10:45:27;;;;;;;2.23;1.23;;;;;;;;;;4992771;28;20415;-53
2021/06/20 10:47:53;;;;;;;1.70;1.60;;;;;;;;;;4992594;28;20540;-53
2021/06/20 10:50:19;;;;;;;1.53;1.23;;;;;;;;;;4992643;28;20991;-54
2021/06/20 10:52:58;;;;;;;1.67;1.33;;;;;;;;;;4992201;28;20451;-54
2021/06/20 10:55:24;;;;;;;6.97;1.53;;;;;;;;;;4992495;28;20439;-54
2021/06/20 10:57:56;;;;;;;2.50;1.40;;;;;;;;;;4992063;28;20396;-54
2021/06/20 11:00:26;;;;;;;1.30;1.07;;;;;;;;;;4992495;28;20406;-53
2021/06/20 11:02:55;;;;;;;1.50;1.40;;;;;;;;;;4992170;28;20504;-53
2021/06/20 11:05:24;;;;;;;2.50;1.40;;;;;;;;;;4992511;28;20411;-54
2021/06/20 11:07:51;;;;;;;1.40;1.30;;;;;;;;;;4991925;28;20482;-54
2021/06/20 11:10:23;;;;;;;1.50;1.37;;;;;;;;;;4992253;28;20427;-53
2021/06/20 11:12:58;;;;;;;1.50;1.40;;;;;;;;;;4991888;28;20428;-54
2021/06/20 11:15:28;;;;;;;1.57;1.47;;;;;;;;;;4992189;28;20426;-53
2021/06/20 11:18:07;;;;;;;2.80;1.60;;;;;;;;;;4991920;28;20435;-54
2021/06/20 11:20:33;;;;;;;1.43;1.33;;;;;;;;;;4974432;28;20404;-53
2021/06/20 11:22:59;;;;;;;1.43;1.33;;;;;;;;;;4991848;28;20927;-54
2021/06/20 11:25:26;;;;;;;3.83;1.43;;;;;;;;;;4992203;28;20425;-54
2021/06/20 11:27:52;;;;;;;1.70;1.60;;;;;;;;;;4991491;28;20404;-54
2021/06/20 11:30:19;;;;;;;1.30;1.20;;;;;;;;;;4992020;28;20435;-54
2021/06/20 11:32:45;;;;;;;1.40;1.20;;;;;;;;;;4991506;28;20430;-54
2021/06/20 11:35:13;;;;;;;1.33;1.23;;;;;;;;;;4991798;28;20396;-53
2021/06/20 11:37:42;;;;;;;2.63;1.40;;;;;;;;;;4991234;28;20861;-53
2021/06/20 11:40:11;;;;;;;1.87;1.77;;;;;;;;;;4991745;28;20435;-53
2021/06/20 11:42:37;;;;;;;3.03;1.43;;;;;;;;;;4991287;28;20436;-53
2021/06/20 11:45:10;;;;;;;8.43;1.63;;;;;;;;;;4991627;28;20416;-53
2021/06/20 11:47:40;;;;;;;1.50;1.40;;;;;;;;;;4991160;28;20432;-52
2021/06/20 11:50:17;;;;;;;2.30;1.50;;;;;;;;;;4991490;28;20415;-53
2021/06/20 11:52:44;;;;;;;1.70;1.50;;;;;;;;;;4991128;28;20448;-53
2021/06/20 11:55:11;;;;;;;2.30;1.33;;;;;;;;;;4992054;28;20793;-50
2021/06/20 11:57:37;;;;;;;1.80;1.70;;;;;;;;;;4991042;28;20467;-51
2021/06/20 12:00:11;;;;;;;3.20;1.53;;;;;;;;;;4991168;28;20404;-51
2021/06/20 12:02:37;;;;;;;6.37;1.90;;;;;;;;;;4991167;28;20424;-51
2021/06/20 12:05:03;;;;;;;1.40;1.30;;;;;;;;;;4991486;28;20400;-51
2021/06/20 12:07:29;;;;;;;1.63;1.40;;;;;;;;;;4991067;28;20473;-51
2021/06/20 12:09:56;;;;;;;1.60;1.50;;;;;;;;;;4991543;28;20404;-51
2021/06/20 12:12:22;;;;;;;1.60;1.47;;;;;;;;;;4991541;28;20884;-51
2021/06/20 12:14:58;;;;;;;2.20;1.40;;;;;;;;;;4990825;28;20974;-50
2021/06/20 12:17:24;;;;;;;5.60;2.10;;;;;;;;;;4990532;28;20834;-51
2021/06/20 12:19:51;;;;;;;1.53;1.43;;;;;;;;;;4989988;28;20408;-50
2021/06/20 12:22:17;;;;;;;1.50;1.40;;;;;;;;;;4991105;28;20455;-51
2021/06/20 12:24:43;;;;;;;1.63;1.43;;;;;;;;;;4990969;28;20400;-51
2021/06/20 12:27:09;;;;;;;3.80;1.40;;;;;;;;;;4990770;28;20458;-50
2021/06/20 12:29:36;;;;;;;2.27;1.60;;;;;;;;;;4990834;28;20920;-52
2021/06/20 12:32:03;;;;;;;2.70;1.60;;;;;;;;;;4990467;28;20428;-52
2021/06/20 12:34:49;;;;;;;1.90;1.40;;;;;;;;;;4990765;28;20408;-51
2021/06/20 12:37:15;;;;;;;1.80;1.70;;;;;;;;;;4990476;28;20455;-51
2021/06/20 12:39:42;;;;;;;1.70;1.60;;;;;;;;;;4990741;28;20400;-51
2021/06/20 12:42:09;;;;;;;1.70;1.60;;;;;;;;;;4990822;28;20412;-51
2021/06/20 12:44:45;;;;;;;1.63;1.53;;;;;;;;;;4990565;28;20493;-51
2021/06/20 12:47:11;;;;;;;4.13;1.80;;;;;;;;;;4990510;28;20915;-51
2021/06/20 12:49:38;;;;;;;2.33;1.57;;;;;;;;;;4990573;28;20912;-50
2021/06/20 12:52:05;;;;;;;7.13;2.00;;;;;;;;;;4990429;28;20424;-52
2021/06/20 12:54:52;;;;;;;3.37;1.70;;;;;;;;;;4990441;28;20408;-53
2021/06/20 12:57:19;;;;;;;1.63;1.23;;;;;;;;;;4990568;28;20930;-53
2021/06/20 12:59:45;;;;;;;1.77;1.67;;;;;;;;;;4990412;28;20408;-51
2021/06/20 13:02:19;;;;;;;1.40;1.30;;;;;;;;;;4990446;28;20424;-53
2021/06/20 13:04:48;;;;;;;2.57;1.73;;;;;;;;;;4990427;28;20407;-51
2021/06/20 13:07:14;;;;;;;3.40;1.57;;;;;;;;;;4990417;28;21181;-52
2021/06/20 13:09:41;;;;;;;2.00;1.77;;;;;;;;;;4988680;28;20419;-53
2021/06/20 13:12:07;;;;;;;4.53;1.57;;;;;;;;;;4984937;28;20519;-52
2021/06/20 13:14:34;;;;;;;2.53;1.50;;;;;;;;;;4990260;28;21083;-51
2021/06/20 13:16:59;;;;;;;1.60;1.50;;;;;;;;;;4990367;28;20443;-51
2021/06/20 13:19:27;;;;;;;2.23;1.80;;;;;;;;;;4990311;28;20539;-53
2021/06/20 13:21:53;;;;;;;2.07;1.53;;;;;;;;;;4990507;28;20420;-51
2021/06/20 13:24:19;;;;;;;1.83;1.60;;;;;;;;;;4990277;28;20404;-53
2021/06/20 13:26:46;;;;;;;2.97;1.63;;;;;;;;;;4990024;28;20534;-52
2021/06/20 13:29:12;;;;;;;1.60;1.40;;;;;;;;;;4990319;28;20400;-51
2021/06/20 13:31:38;;;;;;;2.60;1.53;;;;;;;;;;4990121;28;20428;-51
2021/06/20 13:34:04;;;;;;;2.10;1.60;;;;;;;;;;4990043;28;20407;-51
2021/06/20 13:36:31;;;;;;;1.90;1.80;;;;;;;;;;4989944;28;20466;-51
2021/06/20 13:38:57;;;;;;;3.67;1.97;;;;;;;;;;4990374;28;20490;-50
2021/06/20 13:41:23;;;;;;;1.57;1.47;;;;;;;;;;4990362;28;20515;-51
2021/06/20 13:43:50;;;;;;;1.57;1.47;;;;;;;;;;4990056;28;20219;-51
2021/06/20 13:46:17;;;;;;;1.73;1.63;;;;;;;;;;4994038;28;20841;-51
2021/06/20 13:48:43;;;;;;;1.70;1.60;;;;;;;;;;4993792;28;20740;-51
2021/06/20 13:51:09;;;;;;;4.20;1.73;;;;;;;;;;4993697;28;20697;-53
2021/06/20 13:53:35;;;;;;;1.67;1.57;;;;;;;;;;4993536;28;20440;-53
2021/06/20 13:56:01;;;;;;;2.10;1.87;;;;;;;;;;4993795;28;20522;-52
2021/06/20 13:58:27;;;;;;;2.20;1.30;;;;;;;;;;4993492;28;20658;-56
2021/06/20 14:00:54;;;;;;;2.10;1.90;;;;;;;;;;4993349;28;20430;-51
2021/06/20 14:03:20;;;;;;;1.97;1.87;;;;;;;;;;4993507;28;20424;-51
2021/06/20 14:05:46;;;;;;;1.80;1.70;;;;;;;;;;4993358;28;20495;-51
2021/06/20 14:08:12;;;;;;;2.10;1.47;;;;;;;;;;4993511;28;20507;-51
2021/06/20 14:10:38;;;;;;;3.03;1.60;;;;;;;;;;4993226;28;20447;-52
2021/06/20 14:13:04;;;;;;;1.80;1.70;;;;;;;;;;4992300;28;20444;-52
2021/06/20 14:15:31;;;;;;;1.60;1.50;;;;;;;;;;4992640;28;20427;-53
2021/06/20 14:17:57;;;;;;;1.90;1.80;;;;;;;;;;4992761;28;20947;-50
2021/06/20 14:20:23;;;;;;;1.57;1.47;;;;;;;;;;4993588;28;20800;-50
2021/06/20 14:22:49;;;;;;;3.70;1.90;;;;;;;;;;4992700;28;20462;-51
2021/06/20 14:25:15;;;;;;;1.90;1.80;;;;;;;;;;4993171;28;20432;-53
2021/06/20 14:27:41;;;;;;;2.50;1.37;;;;;;;;;;4992691;28;21063;-52
2021/06/20 14:30:08;;;;;;;4.90;1.83;;;;;;;;;;4993085;28;20400;-54
2021/06/20 14:32:34;;;;;;;2.40;1.77;;;;;;;;;;4992515;28;20524;-51
2021/06/20 14:35:00;;;;;;;2.10;1.90;;;;;;;;;;4992938;28;20521;-52
2021/06/20 14:37:26;;;;;;;2.90;1.83;;;;;;;;;;4992589;28;20197;-52
2021/06/20 14:39:55;;;;;;;1.67;1.57;;;;;;;;;;4992918;28;20402;-51